sensor_id;sensor_type;location;lat;lon;timestamp;pressure;altitude;pressure_sealevel;temperature;humidity
5609;BME280;2826;51.354;9.588;2023-05-02T00:02:18;98185.44;;;13.65;66.94
5609;BME280;2826;51.354;9.588;2023-05-02T00:04:46;98178.50;;;13.65;66.76
5609;BME280;2826;51.354;9.588;2023-05-02T00:07:13;98178.16;;;13.71;66.33
5609;BME280;2826;51.354;9.588;2023-05-02T00:09:39;98177.31;;;13.71;66.72
5609;BME280;2826;51.354;9.588;2023-05-02T00:12:06;98178.16;;;13.71;66.68
5609;BME280;2826;51.354;9.588;2023-05-02T00:14:33;98177.47;;;13.68;66.52
5609;BME280;2826;51.354;9.588;2023-05-02T00:16:59;98177.56;;;13.66;67.01
5609;BME280;2826;51.354;9.588;2023-05-02T00:19:26;98185.22;;;13.69;66.43
5609;BME280;2826;51.354;9.588;2023-05-02T00:21:53;98183.69;;;13.65;66.94
5609;BME280;2826;51.354;9.588;2023-05-02T00:24:20;98183.94;;;13.61;67.55
5609;BME280;2826;51.354;9.588;2023-05-02T00:26:46;98179.72;;;13.58;67.60
5609;BME280;2826;51.354;9.588;2023-05-02T00:29:13;98179.72;;;13.58;67.58
5609;BME280;2826;51.354;9.588;2023-05-02T00:31:40;98189.06;;;13.62;67.73
5609;BME280;2826;51.354;9.588;2023-05-02T00:34:06;98181.16;;;13.64;67.49
5609;BME280;2826;51.354;9.588;2023-05-02T00:36:33;98178.56;;;13.64;67.20
5609;BME280;2826;51.354;9.588;2023-05-02T00:39:01;98176.88;;;13.63;67.82
5609;BME280;2826;51.354;9.588;2023-05-02T00:41:28;98182.84;;;13.65;67.61
5609;BME280;2826;51.354;9.588;2023-05-02T00:43:55;98188.97;;;13.64;67.73
5609;BME280;2826;51.354;9.588;2023-05-02T00:46:23;98183.84;;;13.62;67.67
5609;BME280;2826;51.354;9.588;2023-05-02T00:48:49;98184.59;;;13.64;67.65
5609;BME280;2826;51.354;9.588;2023-05-02T00:51:16;98181.84;;;13.67;67.28
5609;BME280;2826;51.354;9.588;2023-05-02T00:53:43;98191.59;;;13.64;67.34
5609;BME280;2826;51.354;9.588;2023-05-02T00:56:11;98184.69;;;13.63;67.63
5609;BME280;2826;51.354;9.588;2023-05-02T00:58:39;98167.69;;;13.55;67.44
5609;BME280;2826;51.354;9.588;2023-05-02T01:01:25;98198.81;;;13.58;68.17
5609;BME280;2826;51.354;9.588;2023-05-02T01:04:03;98188.22;;;13.62;68.10
5609;BME280;2826;51.354;9.588;2023-05-02T01:06:54;98191.88;;;13.57;68.23
5609;BME280;2826;51.354;9.588;2023-05-02T01:09:31;98196.56;;;13.51;68.53
5609;BME280;2826;51.354;9.588;2023-05-02T01:12:05;98196.00;;;13.44;68.78
5609;BME280;2826;51.354;9.588;2023-05-02T01:14:39;98203.81;;;13.44;69.04
5609;BME280;2826;51.354;9.588;2023-05-02T01:17:10;98201.63;;;13.36;69.55
5609;BME280;2826;51.354;9.588;2023-05-02T01:19:40;98203.53;;;13.32;69.55
5609;BME280;2826;51.354;9.588;2023-05-02T01:22:10;98203.63;;;13.31;69.99
5609;BME280;2826;51.354;9.588;2023-05-02T01:24:41;98208.06;;;13.29;70.22
5609;BME280;2826;51.354;9.588;2023-05-02T01:27:26;98206.16;;;13.32;70.14
5609;BME280;2826;51.354;9.588;2023-05-02T01:29:56;98211.09;;;13.37;69.63
5609;BME280;2826;51.354;9.588;2023-05-02T01:32:24;98206.97;;;13.33;69.97
5609;BME280;2826;51.354;9.588;2023-05-02T01:34:53;98202.16;;;13.25;69.76
5609;BME280;2826;51.354;9.588;2023-05-02T01:37:22;98212.81;;;13.38;69.91
5609;BME280;2826;51.354;9.588;2023-05-02T01:39:51;98211.97;;;13.38;69.46
5609;BME280;2826;51.354;9.588;2023-05-02T01:42:20;98209.91;;;13.44;69.59
5609;BME280;2826;51.354;9.588;2023-05-02T01:44:49;98211.56;;;13.45;69.32
5609;BME280;2826;51.354;9.588;2023-05-02T01:47:18;98205.53;;;13.45;69.58
5609;BME280;2826;51.354;9.588;2023-05-02T01:49:47;98214.91;;;13.49;69.29
5609;BME280;2826;51.354;9.588;2023-05-02T01:52:14;98212.38;;;13.48;68.85
5609;BME280;2826;51.354;9.588;2023-05-02T01:54:42;98215.03;;;13.46;69.27
5609;BME280;2826;51.354;9.588;2023-05-02T01:57:10;98218.72;;;13.42;69.39
5609;BME280;2826;51.354;9.588;2023-05-02T01:59:39;98219.56;;;13.42;69.59
5609;BME280;2826;51.354;9.588;2023-05-02T02:02:07;98221.38;;;13.40;69.45
5609;BME280;2826;51.354;9.588;2023-05-02T02:04:36;98217.03;;;13.41;69.38
5609;BME280;2826;51.354;9.588;2023-05-02T02:07:05;98214.56;;;13.38;69.46
5609;BME280;2826;51.354;9.588;2023-05-02T02:09:33;98212.44;;;13.28;69.59
5609;BME280;2826;51.354;9.588;2023-05-02T02:12:05;98215.97;;;13.27;70.18
5609;BME280;2826;51.354;9.588;2023-05-02T02:14:35;98224.66;;;13.26;70.49
5609;BME280;2826;51.354;9.588;2023-05-02T02:17:05;98230.06;;;13.23;70.58
5609;BME280;2826;51.354;9.588;2023-05-02T02:19:38;98241.75;;;13.14;71.23
5609;BME280;2826;51.354;9.588;2023-05-02T02:22:07;98207.34;;;12.90;71.69
5609;BME280;2826;51.354;9.588;2023-05-02T02:24:35;98244.28;;;13.16;71.77
5609;BME280;2826;51.354;9.588;2023-05-02T02:27:02;98240.31;;;13.09;72.57
5609;BME280;2826;51.354;9.588;2023-05-02T02:29:29;98249.88;;;13.08;72.76
5609;BME280;2826;51.354;9.588;2023-05-02T02:31:56;98250.00;;;13.05;73.37
5609;BME280;2826;51.354;9.588;2023-05-02T02:34:22;98249.41;;;13.00;73.71
5609;BME280;2826;51.354;9.588;2023-05-02T02:36:56;98254.97;;;12.92;74.44
5609;BME280;2826;51.354;9.588;2023-05-02T02:39:38;98258.63;;;12.88;75.50
5609;BME280;2826;51.354;9.588;2023-05-02T02:42:11;98250.41;;;12.78;75.95
5609;BME280;2826;51.354;9.588;2023-05-02T02:44:47;98256.47;;;12.78;76.50
5609;BME280;2826;51.354;9.588;2023-05-02T02:47:22;98258.22;;;12.78;77.13
5609;BME280;2826;51.354;9.588;2023-05-02T02:49:59;98263.50;;;12.76;77.22
5609;BME280;2826;51.354;9.588;2023-05-02T02:52:41;98260.81;;;12.78;78.09
5609;BME280;2826;51.354;9.588;2023-05-02T02:55:16;98266.88;;;12.78;78.15
5609;BME280;2826;51.354;9.588;2023-05-02T02:57:51;98263.44;;;12.78;78.69
5609;BME280;2826;51.354;9.588;2023-05-02T03:00:24;98274.75;;;12.77;79.19
5609;BME280;2826;51.354;9.588;2023-05-02T03:02:53;98277.97;;;12.82;78.63
5609;BME280;2826;51.354;9.588;2023-05-02T03:05:21;98271.22;;;12.78;79.37
5609;BME280;2826;51.354;9.588;2023-05-02T03:07:50;98282.50;;;12.78;79.38
5609;BME280;2826;51.354;9.588;2023-05-02T03:10:20;98284.81;;;12.85;79.08
5609;BME280;2826;51.354;9.588;2023-05-02T03:12:47;98288.47;;;12.80;79.99
5609;BME280;2826;51.354;9.588;2023-05-02T03:15:27;98291.28;;;12.76;80.63
5609;BME280;2826;51.354;9.588;2023-05-02T03:17:56;98300.66;;;12.80;80.26
5609;BME280;2826;51.354;9.588;2023-05-02T03:20:23;98293.72;;;12.79;80.72
5609;BME280;2826;51.354;9.588;2023-05-02T03:22:51;98298.25;;;12.75;80.94
5609;BME280;2826;51.354;9.588;2023-05-02T03:25:17;98301.69;;;12.76;81.11
5609;BME280;2826;51.354;9.588;2023-05-02T03:27:47;98307.72;;;12.76;81.18
5609;BME280;2826;51.354;9.588;2023-05-02T03:30:14;98306.97;;;12.74;81.42
5609;BME280;2826;51.354;9.588;2023-05-02T03:32:41;98312.19;;;12.74;81.73
5609;BME280;2826;51.354;9.588;2023-05-02T03:35:08;98310.56;;;12.72;81.67
5609;BME280;2826;51.354;9.588;2023-05-02T03:37:40;98289.38;;;12.60;82.07
5609;BME280;2826;51.354;9.588;2023-05-02T03:40:09;98302.25;;;12.63;82.18
5609;BME280;2826;51.354;9.588;2023-05-02T03:42:35;98276.31;;;12.43;82.61
5609;BME280;2826;51.354;9.588;2023-05-02T03:45:09;98309.09;;;12.66;82.48
5609;BME280;2826;51.354;9.588;2023-05-02T03:47:35;98316.59;;;12.72;82.08
5609;BME280;2826;51.354;9.588;2023-05-02T03:50:02;98318.50;;;12.68;82.52
5609;BME280;2826;51.354;9.588;2023-05-02T03:52:32;98319.91;;;12.76;82.29
5609;BME280;2826;51.354;9.588;2023-05-02T03:54:59;98325.94;;;12.76;82.55
5609;BME280;2826;51.354;9.588;2023-05-02T03:57:30;98326.00;;;12.75;82.63
5609;BME280;2826;51.354;9.588;2023-05-02T03:59:56;98330.38;;;12.74;82.78
5609;BME280;2826;51.354;9.588;2023-05-02T04:02:26;98333.25;;;12.68;83.50
5609;BME280;2826;51.354;9.588;2023-05-02T04:04:53;98331.56;;;12.67;83.62
5609;BME280;2826;51.354;9.588;2023-05-02T04:07:22;98335.94;;;12.66;83.86
5609;BME280;2826;51.354;9.588;2023-05-02T04:09:57;98341.28;;;12.63;83.73
5609;BME280;2826;51.354;9.588;2023-05-02T04:12:24;98338.38;;;12.70;83.52
5609;BME280;2826;51.354;9.588;2023-05-02T04:14:53;98342.97;;;12.64;83.96
5609;BME280;2826;51.354;9.588;2023-05-02T04:17:23;98343.81;;;12.65;84.07
5609;BME280;2826;51.354;9.588;2023-05-02T04:19:51;98350.84;;;12.63;84.27
5609;BME280;2826;51.354;9.588;2023-05-02T04:22:22;98348.78;;;12.70;83.76
5609;BME280;2826;51.354;9.588;2023-05-02T04:24:53;98361.03;;;12.67;83.88
5609;BME280;2826;51.354;9.588;2023-05-02T04:27:20;98361.03;;;12.67;84.15
5609;BME280;2826;51.354;9.588;2023-05-02T04:29:48;98365.41;;;12.67;84.36
5609;BME280;2826;51.354;9.588;2023-05-02T04:32:17;98363.44;;;12.72;84.24
5609;BME280;2826;51.354;9.588;2023-05-02T04:34:45;98371.09;;;12.75;84.01
5609;BME280;2826;51.354;9.588;2023-05-02T04:37:13;98367.00;;;12.70;83.99
5609;BME280;2826;51.354;9.588;2023-05-02T04:39:43;98374.88;;;12.68;84.43
5609;BME280;2826;51.354;9.588;2023-05-02T04:42:17;98386.00;;;12.72;84.22
5609;BME280;2826;51.354;9.588;2023-05-02T04:44:52;98384.25;;;12.72;83.95
5609;BME280;2826;51.354;9.588;2023-05-02T04:47:21;98393.09;;;12.68;84.57
5609;BME280;2826;51.354;9.588;2023-05-02T04:49:47;98389.53;;;12.71;84.59
5609;BME280;2826;51.354;9.588;2023-05-02T04:52:14;98390.38;;;12.71;84.29
5609;BME280;2826;51.354;9.588;2023-05-02T04:54:42;98403.31;;;12.73;84.53
5609;BME280;2826;51.354;9.588;2023-05-02T04:57:09;98400.63;;;12.74;84.83
5609;BME280;2826;51.354;9.588;2023-05-02T04:59:40;98407.53;;;12.75;84.40
5609;BME280;2826;51.354;9.588;2023-05-02T05:02:07;98406.41;;;12.81;84.34
5609;BME280;2826;51.354;9.588;2023-05-02T05:04:38;98414.97;;;12.83;83.75
5609;BME280;2826;51.354;9.588;2023-05-02T05:07:05;98413.16;;;12.85;83.97
5609;BME280;2826;51.354;9.588;2023-05-02T05:09:32;98424.28;;;12.89;83.12
5609;BME280;2826;51.354;9.588;2023-05-02T05:11:58;98427.81;;;12.88;83.47
5609;BME280;2826;51.354;9.588;2023-05-02T05:14:44;98421.47;;;12.93;83.06
5609;BME280;2826;51.354;9.588;2023-05-02T05:17:12;98419.88;;;12.91;82.96
5609;BME280;2826;51.354;9.588;2023-05-02T05:19:40;98431.72;;;12.97;82.63
5609;BME280;2826;51.354;9.588;2023-05-02T05:22:07;98428.31;;;12.96;82.52
5609;BME280;2826;51.354;9.588;2023-05-02T05:24:36;98426.47;;;12.98;82.67
5609;BME280;2826;51.354;9.588;2023-05-02T05:27:03;98435.13;;;12.99;82.53
5609;BME280;2826;51.354;9.588;2023-05-02T05:29:30;98442.22;;;12.95;82.66
5609;BME280;2826;51.354;9.588;2023-05-02T05:31:56;98437.91;;;12.94;82.68
5609;BME280;2826;51.354;9.588;2023-05-02T05:34:24;98432.88;;;12.91;82.42
5609;BME280;2826;51.354;9.588;2023-05-02T05:36:56;98443.97;;;12.94;82.37
5609;BME280;2826;51.354;9.588;2023-05-02T05:39:23;98440.53;;;12.94;81.92
5609;BME280;2826;51.354;9.588;2023-05-02T05:41:52;98416.84;;;12.60;82.18
5609;BME280;2826;51.354;9.588;2023-05-02T05:44:19;98453.03;;;12.86;82.23
5609;BME280;2826;51.354;9.588;2023-05-02T05:46:46;98455.63;;;12.86;82.34
5609;BME280;2826;51.354;9.588;2023-05-02T05:49:14;98459.94;;;12.87;82.07
5609;BME280;2826;51.354;9.588;2023-05-02T05:51:42;98458.22;;;12.86;82.06
5609;BME280;2826;51.354;9.588;2023-05-02T05:54:10;98466.84;;;12.88;82.17
5609;BME280;2826;51.354;9.588;2023-05-02T05:56:37;98472.44;;;12.78;81.94
5609;BME280;2826;51.354;9.588;2023-05-02T05:59:09;98467.88;;;12.84;81.83
5609;BME280;2826;51.354;9.588;2023-05-02T06:01:36;98477.31;;;12.86;81.15
5609;BME280;2826;51.354;9.588;2023-05-02T06:04:03;98484.53;;;12.79;80.81
5609;BME280;2826;51.354;9.588;2023-05-02T06:06:32;98473.44;;;12.76;80.39
5609;BME280;2826;51.354;9.588;2023-05-02T06:08:59;98478.41;;;12.80;79.80
5609;BME280;2826;51.354;9.588;2023-05-02T06:11:28;98480.69;;;12.88;79.16
5609;BME280;2826;51.354;9.588;2023-05-02T06:13:55;98492.06;;;12.86;79.46
5609;BME280;2826;51.354;9.588;2023-05-02T06:16:22;98491.59;;;12.97;79.03
5609;BME280;2826;51.354;9.588;2023-05-02T06:18:50;98497.03;;;12.92;78.88
5609;BME280;2826;51.354;9.588;2023-05-02T06:21:16;98502.94;;;12.96;78.83
5609;BME280;2826;51.354;9.588;2023-05-02T06:23:43;98498.72;;;12.93;79.02
5609;BME280;2826;51.354;9.588;2023-05-02T06:26:10;98510.22;;;12.87;78.78
5609;BME280;2826;51.354;9.588;2023-05-02T06:28:38;98507.56;;;12.89;78.75
5609;BME280;2826;51.354;9.588;2023-05-02T06:31:05;98514.38;;;12.91;78.71
5609;BME280;2826;51.354;9.588;2023-05-02T06:33:32;98522.19;;;12.91;78.83
5609;BME280;2826;51.354;9.588;2023-05-02T06:35:59;98524.16;;;12.86;79.45
5609;BME280;2826;51.354;9.588;2023-05-02T06:38:26;98526.25;;;12.78;79.67
5609;BME280;2826;51.354;9.588;2023-05-02T06:40:52;98528.50;;;12.86;79.24
5609;BME280;2826;51.354;9.588;2023-05-02T06:43:19;98528.91;;;12.76;79.81
5609;BME280;2826;51.354;9.588;2023-05-02T06:45:47;98538.66;;;12.71;80.08
5609;BME280;2826;51.354;9.588;2023-05-02T06:48:13;98542.84;;;12.75;80.12
5609;BME280;2826;51.354;9.588;2023-05-02T06:50:40;98545.94;;;12.63;80.37
5609;BME280;2826;51.354;9.588;2023-05-02T06:53:07;98546.47;;;12.71;80.55
5609;BME280;2826;51.354;9.588;2023-05-02T06:55:33;98549.88;;;12.73;80.71
5609;BME280;2826;51.354;9.588;2023-05-02T06:58:00;98547.28;;;12.73;81.16
5609;BME280;2826;51.354;9.588;2023-05-02T07:00:26;98548.94;;;12.74;81.41
5609;BME280;2826;51.354;9.588;2023-05-02T07:02:54;98569.13;;;12.69;81.34
5609;BME280;2826;51.354;9.588;2023-05-02T07:05:22;98557.16;;;12.65;81.58
5609;BME280;2826;51.354;9.588;2023-05-02T07:07:49;98559.25;;;12.77;81.94
5609;BME280;2826;51.354;9.588;2023-05-02T07:10:16;98568.59;;;12.81;81.81
5609;BME280;2826;51.354;9.588;2023-05-02T07:12:42;98571.13;;;12.83;81.83
5609;BME280;2826;51.354;9.588;2023-05-02T07:15:10;98571.47;;;12.96;81.21
5609;BME280;2826;51.354;9.588;2023-05-02T07:17:38;98568.13;;;13.13;81.35
5609;BME280;2826;51.354;9.588;2023-05-02T07:20:07;98576.16;;;13.28;80.24
5609;BME280;2826;51.354;9.588;2023-05-02T07:22:34;98581.00;;;13.56;79.68
5609;BME280;2826;51.354;9.588;2023-05-02T07:25:01;98570.28;;;13.82;79.04
5609;BME280;2826;51.354;9.588;2023-05-02T07:27:28;98544.34;;;13.80;78.40
5609;BME280;2826;51.354;9.588;2023-05-02T07:29:55;98572.25;;;13.96;76.60
5609;BME280;2826;51.354;9.588;2023-05-02T07:32:21;98576.78;;;13.92;76.13
5609;BME280;2826;51.354;9.588;2023-05-02T07:34:49;98595.91;;;13.74;77.00
5609;BME280;2826;51.354;9.588;2023-05-02T07:37:19;98564.91;;;13.46;77.60
5609;BME280;2826;51.354;9.588;2023-05-02T07:39:46;98592.00;;;13.63;77.07
5609;BME280;2826;51.354;9.588;2023-05-02T07:42:12;98596.09;;;13.69;77.42
5609;BME280;2826;51.354;9.588;2023-05-02T07:44:39;98594.47;;;13.85;76.97
5609;BME280;2826;51.354;9.588;2023-05-02T07:47:07;98594.38;;;14.06;76.82
5609;BME280;2826;51.354;9.588;2023-05-02T07:49:34;98598.94;;;14.20;75.85
5609;BME280;2826;51.354;9.588;2023-05-02T07:52:01;98600.78;;;14.18;74.75
5609;BME280;2826;51.354;9.588;2023-05-02T07:54:28;98601.47;;;14.22;74.66
5609;BME280;2826;51.354;9.588;2023-05-02T07:56:55;98599.69;;;14.22;75.49
5609;BME280;2826;51.354;9.588;2023-05-02T07:59:26;98606.91;;;14.17;75.91
5609;BME280;2826;51.354;9.588;2023-05-02T08:01:53;98616.72;;;14.12;75.03
5609;BME280;2826;51.354;9.588;2023-05-02T08:04:19;98617.25;;;14.19;75.23
5609;BME280;2826;51.354;9.588;2023-05-02T08:06:46;98622.41;;;14.20;75.48
5609;BME280;2826;51.354;9.588;2023-05-02T08:09:12;98622.22;;;14.25;75.12
5609;BME280;2826;51.354;9.588;2023-05-02T08:11:40;98625.50;;;14.29;73.81
5609;BME280;2826;51.354;9.588;2023-05-02T08:14:07;98623.38;;;14.37;74.04
5609;BME280;2826;51.354;9.588;2023-05-02T08:16:33;98628.44;;;14.40;72.23
5609;BME280;2826;51.354;9.588;2023-05-02T08:19:00;98626.91;;;14.54;72.21
5609;BME280;2826;51.354;9.588;2023-05-02T08:21:26;98626.97;;;14.89;71.16
5609;BME280;2826;51.354;9.588;2023-05-02T08:23:56;98633.41;;;15.35;70.29
5609;BME280;2826;51.354;9.588;2023-05-02T08:26:23;98627.97;;;15.55;68.81
5609;BME280;2826;51.354;9.588;2023-05-02T08:28:52;98632.34;;;15.55;68.12
5609;BME280;2826;51.354;9.588;2023-05-02T08:31:19;98639.91;;;15.44;68.46
5609;BME280;2826;51.354;9.588;2023-05-02T08:33:45;98647.56;;;14.78;69.89
5609;BME280;2826;51.354;9.588;2023-05-02T08:36:13;98650.34;;;14.18;70.00
5609;BME280;2826;51.354;9.588;2023-05-02T08:38:40;98657.66;;;13.71;71.79
5609;BME280;2826;51.354;9.588;2023-05-02T08:41:09;98657.50;;;13.55;72.32
5609;BME280;2826;51.354;9.588;2023-05-02T08:43:36;98657.53;;;13.33;74.01
5609;BME280;2826;51.354;9.588;2023-05-02T08:46:06;98664.00;;;13.24;76.48
5609;BME280;2826;51.354;9.588;2023-05-02T08:48:34;98663.59;;;13.13;76.95
5609;BME280;2826;51.354;9.588;2023-05-02T08:51:02;98667.91;;;13.14;78.35
5609;BME280;2826;51.354;9.588;2023-05-02T08:53:31;98665.84;;;13.22;78.46
5609;BME280;2826;51.354;9.588;2023-05-02T08:56:00;98642.19;;;13.06;79.26
5609;BME280;2826;51.354;9.588;2023-05-02T08:58:26;98675.06;;;13.29;80.01
5609;BME280;2826;51.354;9.588;2023-05-02T09:00:54;98685.28;;;13.34;79.64
5609;BME280;2826;51.354;9.588;2023-05-02T09:03:28;98697.16;;;13.20;79.72
5609;BME280;2826;51.354;9.588;2023-05-02T09:06:03;98694.66;;;13.17;79.56
5609;BME280;2826;51.354;9.588;2023-05-02T09:08:30;98707.63;;;13.19;79.57
5609;BME280;2826;51.354;9.588;2023-05-02T09:10:57;98710.06;;;13.01;80.17
5609;BME280;2826;51.354;9.588;2023-05-02T09:13:28;98714.19;;;13.07;80.90
5609;BME280;2826;51.354;9.588;2023-05-02T09:15:57;98720.25;;;12.85;80.62
5609;BME280;2826;51.354;9.588;2023-05-02T09:18:27;98736.63;;;12.66;80.74
5609;BME280;2826;51.354;9.588;2023-05-02T09:20:55;98723.03;;;12.80;81.28
5609;BME280;2826;51.354;9.588;2023-05-02T09:23:31;98728.13;;;12.84;80.67
5609;BME280;2826;51.354;9.588;2023-05-02T09:25:58;98731.63;;;13.05;79.41
5609;BME280;2826;51.354;9.588;2023-05-02T09:28:38;98737.94;;;13.20;78.47
5609;BME280;2826;51.354;9.588;2023-05-02T09:31:07;98741.41;;;13.20;77.72
5609;BME280;2826;51.354;9.588;2023-05-02T09:33:38;98748.63;;;13.35;77.40
5609;BME280;2826;51.354;9.588;2023-05-02T09:36:06;98747.44;;;13.21;76.80
5609;BME280;2826;51.354;9.588;2023-05-02T09:38:33;98751.00;;;12.98;76.48
5609;BME280;2826;51.354;9.588;2023-05-02T09:41:00;98751.84;;;12.98;76.89
5609;BME280;2826;51.354;9.588;2023-05-02T09:43:28;98755.84;;;12.85;77.94
5609;BME280;2826;51.354;9.588;2023-05-02T09:45:56;98765.34;;;12.86;78.23
5609;BME280;2826;51.354;9.588;2023-05-02T09:48:23;98767.88;;;12.87;78.61
5609;BME280;2826;51.354;9.588;2023-05-02T09:50:51;98770.97;;;12.75;79.11
5609;BME280;2826;51.354;9.588;2023-05-02T09:53:19;98762.31;;;12.97;78.98
5609;BME280;2826;51.354;9.588;2023-05-02T09:55:46;98769.78;;;13.27;77.79
5609;BME280;2826;51.354;9.588;2023-05-02T09:58:20;98772.84;;;13.59;75.40
5609;BME280;2826;51.354;9.588;2023-05-02T10:00:49;98775.31;;;13.83;73.52
5609;BME280;2826;51.354;9.588;2023-05-02T10:03:16;98784.63;;;13.89;73.83
5609;BME280;2826;51.354;9.588;2023-05-02T10:05:44;98783.06;;;13.84;72.68
5609;BME280;2826;51.354;9.588;2023-05-02T10:08:13;98782.28;;;14.03;72.38
5609;BME280;2826;51.354;9.588;2023-05-02T10:10:45;98786.81;;;13.98;72.21
5609;BME280;2826;51.354;9.588;2023-05-02T10:13:16;98790.09;;;13.82;72.08
5609;BME280;2826;51.354;9.588;2023-05-02T10:15:46;98789.25;;;13.82;70.63
5609;BME280;2826;51.354;9.588;2023-05-02T10:18:19;98786.78;;;13.79;71.57
5609;BME280;2826;51.354;9.588;2023-05-02T10:20:55;98788.94;;;13.90;70.74
5609;BME280;2826;51.354;9.588;2023-05-02T10:23:25;98792.59;;;13.85;69.23
5609;BME280;2826;51.354;9.588;2023-05-02T10:25:52;98803.97;;;13.62;69.11
5609;BME280;2826;51.354;9.588;2023-05-02T10:28:20;98771.03;;;13.39;69.45
5609;BME280;2826;51.354;9.588;2023-05-02T10:30:48;98800.09;;;13.52;68.97
5609;BME280;2826;51.354;9.588;2023-05-02T10:33:16;98745.66;;;13.01;69.49
5609;BME280;2826;51.354;9.588;2023-05-02T10:35:44;98800.28;;;13.45;69.34
5609;BME280;2826;51.354;9.588;2023-05-02T10:38:13;98793.75;;;13.78;68.99
5609;BME280;2826;51.354;9.588;2023-05-02T10:40:47;98785.63;;;14.26;66.62
5609;BME280;2826;51.354;9.588;2023-05-02T10:43:23;98797.41;;;14.54;64.82
5609;BME280;2826;51.354;9.588;2023-05-02T10:45:51;98798.53;;;14.68;64.01
5609;BME280;2826;51.354;9.588;2023-05-02T10:48:19;98807.63;;;14.40;64.35
5609;BME280;2826;51.354;9.588;2023-05-02T10:50:48;98777.34;;;14.16;63.79
5609;BME280;2826;51.354;9.588;2023-05-02T10:53:26;98794.44;;;14.23;64.53
5609;BME280;2826;51.354;9.588;2023-05-02T10:56:15;98795.41;;;14.21;64.33
5609;BME280;2826;51.354;9.588;2023-05-02T10:58:43;98804.78;;;14.63;63.79
5609;BME280;2826;51.354;9.588;2023-05-02T11:01:32;98795.66;;;15.11;63.03
5609;BME280;2826;51.354;9.588;2023-05-02T11:04:08;98799.84;;;14.96;61.16
5609;BME280;2826;51.354;9.588;2023-05-02T11:06:36;98804.19;;;14.97;61.30
5609;BME280;2826;51.354;9.588;2023-05-02T11:09:33;98813.81;;;14.75;61.71
5609;BME280;2826;51.354;9.588;2023-05-02T11:12:01;98808.59;;;14.75;63.18
5609;BME280;2826;51.354;9.588;2023-05-02T11:14:42;98818.28;;;14.54;63.29
5609;BME280;2826;51.354;9.588;2023-05-02T11:17:09;98818.38;;;14.13;63.54
5609;BME280;2826;51.354;9.588;2023-05-02T11:22:36;98823.53;;;13.93;64.46
5609;BME280;2826;51.354;9.588;2023-05-02T11:25:03;98826.09;;;13.95;64.33
5609;BME280;2826;51.354;9.588;2023-05-02T11:27:37;98831.28;;;13.74;64.81
5609;BME280;2826;51.354;9.588;2023-05-02T11:30:05;98836.81;;;13.44;66.25
5609;BME280;2826;51.354;9.588;2023-05-02T11:33:13;98839.81;;;13.12;68.36
5609;BME280;2826;51.354;9.588;2023-05-02T11:35:46;98835.56;;;12.87;69.78
5609;BME280;2826;51.354;9.588;2023-05-02T11:38:18;98848.88;;;12.79;70.47
5609;BME280;2826;51.354;9.588;2023-05-02T11:40:53;98826.56;;;12.72;69.53
5609;BME280;2826;51.354;9.588;2023-05-02T11:43:23;98841.22;;;12.99;69.21
5609;BME280;2826;51.354;9.588;2023-05-02T11:45:51;98839.31;;;13.02;68.73
5609;BME280;2826;51.354;9.588;2023-05-02T11:48:18;98854.34;;;12.96;68.74
5609;BME280;2826;51.354;9.588;2023-05-02T11:50:48;98853.72;;;12.89;68.85
5609;BME280;2826;51.354;9.588;2023-05-02T11:53:16;98858.19;;;12.61;69.70
5609;BME280;2826;51.354;9.588;2023-05-02T11:55:44;98866.00;;;12.61;70.01
5609;BME280;2826;51.354;9.588;2023-05-02T11:58:12;98855.59;;;12.61;69.39
5609;BME280;2826;51.354;9.588;2023-05-02T12:00:41;98859.38;;;12.76;69.00
5609;BME280;2826;51.354;9.588;2023-05-02T12:03:25;98855.13;;;12.98;68.03
5609;BME280;2826;51.354;9.588;2023-05-02T12:05:52;98864.47;;;12.79;68.86
5609;BME280;2826;51.354;9.588;2023-05-02T12:08:20;98861.38;;;12.70;69.26
5609;BME280;2826;51.354;9.588;2023-05-02T12:10:47;98828.69;;;12.62;69.16
5609;BME280;2826;51.354;9.588;2023-05-02T12:13:15;98867.75;;;12.85;68.42
5609;BME280;2826;51.354;9.588;2023-05-02T12:15:43;98868.94;;;13.00;68.21
5609;BME280;2826;51.354;9.588;2023-05-02T12:18:11;98867.25;;;12.99;67.22
5609;BME280;2826;51.354;9.588;2023-05-02T12:20:38;98868.66;;;12.84;66.59
5609;BME280;2826;51.354;9.588;2023-05-02T12:23:06;98871.84;;;12.92;66.31
5609;BME280;2826;51.354;9.588;2023-05-02T12:25:37;98870.50;;;13.04;66.29
5609;BME280;2826;51.354;9.588;2023-05-02T12:28:05;98882.88;;;13.21;65.66
5609;BME280;2826;51.354;9.588;2023-05-02T12:30:32;98882.44;;;13.10;65.34
5609;BME280;2826;51.354;9.588;2023-05-02T12:33:01;98884.56;;;13.00;65.54
5609;BME280;2826;51.354;9.588;2023-05-02T12:35:28;98902.75;;;12.77;65.78
5609;BME280;2826;51.354;9.588;2023-05-02T12:38:08;98907.25;;;12.72;65.85
5609;BME280;2826;51.354;9.588;2023-05-02T12:40:35;98897.25;;;12.85;65.09
5609;BME280;2826;51.354;9.588;2023-05-02T12:43:03;98908.09;;;12.97;64.74
5609;BME280;2826;51.354;9.588;2023-05-02T12:45:32;98905.28;;;13.25;64.04
5609;BME280;2826;51.354;9.588;2023-05-02T12:48:01;98916.25;;;13.11;64.37
5609;BME280;2826;51.354;9.588;2023-05-02T12:50:34;98901.78;;;12.80;65.36
5609;BME280;2826;51.354;9.588;2023-05-02T12:53:02;98926.16;;;13.01;64.72
5609;BME280;2826;51.354;9.588;2023-05-02T12:55:29;98934.94;;;13.21;64.94
5609;BME280;2826;51.354;9.588;2023-05-02T12:58:00;98932.59;;;13.15;63.34
5609;BME280;2826;51.354;9.588;2023-05-02T13:00:27;98931.31;;;13.25;63.19
5609;BME280;2826;51.354;9.588;2023-05-02T13:02:54;98923.28;;;13.31;62.36
5609;BME280;2826;51.354;9.588;2023-05-02T13:05:23;98906.13;;;13.26;62.26
5609;BME280;2826;51.354;9.588;2023-05-02T13:07:50;98947.19;;;13.19;63.03
5609;BME280;2826;51.354;9.588;2023-05-02T13:10:17;98954.84;;;12.50;64.61
5609;BME280;2826;51.354;9.588;2023-05-02T13:12:44;98944.19;;;12.33;65.33
5609;BME280;2826;51.354;9.588;2023-05-02T13:15:11;98948.81;;;12.50;66.24
5609;BME280;2826;51.354;9.588;2023-05-02T13:17:38;98948.38;;;12.62;65.08
5609;BME280;2826;51.354;9.588;2023-05-02T13:20:05;98952.50;;;12.68;64.15
5609;BME280;2826;51.354;9.588;2023-05-02T13:22:34;98933.25;;;12.48;64.13
5609;BME280;2826;51.354;9.588;2023-05-02T13:25:01;98957.81;;;12.65;64.51
5609;BME280;2826;51.354;9.588;2023-05-02T13:27:27;98956.63;;;12.74;63.35
5609;BME280;2826;51.354;9.588;2023-05-02T13:29:54;98959.28;;;12.72;63.96
5609;BME280;2826;51.354;9.588;2023-05-02T13:32:21;98973.50;;;12.63;63.08
5609;BME280;2826;51.354;9.588;2023-05-02T13:34:48;98959.22;;;12.50;64.62
5609;BME280;2826;51.354;9.588;2023-05-02T13:37:15;98961.50;;;12.59;63.96